Time;durP1;ratioP1;P1;durP2;ratioP2;P2;SDS_P1;SDS_P2;PMS_P1;PMS_P2;Temp;Humidity;BMP_temperature;BMP_pressure;BME280_temperature;BME280_humidity;BME280_pressure;Samples;Min_cycle;Max_cycle;Signal;HPM_P1;HPM_P2
2022/08/25 00:00:33;;;;;;;2.37;2.17;;;23.30;53.50;;;;;;942603;149;27260;-76
2022/08/25 00:02:59;;;;;;;2.30;2.10;;;23.30;53.50;;;;;;942472;150;27278;-76
2022/08/25 00:05:26;;;;;;;2.20;2.10;;;23.30;53.50;;;;;;943568;147;27339;-76
2022/08/25 00:07:52;;;;;;;4.22;2.15;;;23.20;53.50;;;;;;944912;150;27215;-76
2022/08/25 00:10:19;;;;;;;2.42;2.25;;;23.20;53.60;;;;;;944072;150;27223;-76
2022/08/25 00:12:45;;;;;;;2.70;2.50;;;23.10;53.60;;;;;;942501;150;27408;-76
2022/08/25 00:15:12;;;;;;;2.42;2.17;;;23.10;53.70;;;;;;942680;150;27277;-76
2022/08/25 00:17:38;;;;;;;2.22;2.02;;;23.10;53.80;;;;;;942367;148;27244;-76
2022/08/25 00:20:08;;;;;;;2.60;2.40;;;23.00;53.80;;;;;;941966;150;27259;-76
2022/08/25 00:22:33;;;;;;;2.37;2.15;;;22.90;53.80;;;;;;944153;150;27729;-76
2022/08/25 00:24:59;;;;;;;4.17;2.33;;;22.90;53.90;;;;;;942642;150;27341;-76
2022/08/25 00:27:26;;;;;;;2.42;2.22;;;22.80;53.90;;;;;;944522;150;28405;-76
2022/08/25 00:29:53;;;;;;;2.10;2.00;;;22.80;54.40;;;;;;943069;148;27279;-77
2022/08/25 00:32:19;;;;;;;2.50;2.30;;;22.70;54.20;;;;;;942918;148;27293;-76
2022/08/25 00:34:46;;;;;;;2.37;2.05;;;22.70;54.30;;;;;;943096;148;27204;-76
2022/08/25 00:37:13;;;;;;;2.72;2.40;;;22.60;54.40;;;;;;941963;148;27250;-76
2022/08/25 00:39:39;;;;;;;3.87;2.30;;;22.60;54.50;;;;;;942583;148;27375;-76
2022/08/25 00:42:06;;;;;;;3.00;2.22;;;22.50;54.60;;;;;;944969;148;27189;-76
2022/08/25 00:44:32;;;;;;;2.30;2.10;;;22.40;54.70;;;;;;944134;148;27287;-76
2022/08/25 00:46:59;;;;;;;2.98;2.58;;;22.40;54.90;;;;;;943701;150;27352;-76
2022/08/25 00:49:43;;;;;;;2.62;2.42;;;22.40;55.00;;;;;;941418;147;27223;-76
2022/08/25 00:52:10;;;;;;;2.30;2.17;;;22.30;55.10;;;;;;939763;148;27361;-76
2022/08/25 00:54:39;;;;;;;3.80;2.50;;;22.30;55.10;;;;;;942698;147;27235;-76
2022/08/25 00:57:05;;;;;;;2.15;2.05;;;22.20;55.20;;;;;;944494;147;27848;-76
2022/08/25 00:59:32;;;;;;;3.72;2.52;;;22.20;55.30;;;;;;943609;150;27224;-76
2022/08/25 01:01:59;;;;;;;2.45;2.25;;;22.10;55.30;;;;;;942501;150;27253;-76
2022/08/25 01:04:25;;;;;;;2.77;2.22;;;22.10;55.50;;;;;;941930;148;27283;-76
2022/08/25 01:06:52;;;;;;;2.42;2.22;;;22.10;55.60;;;;;;940896;148;27291;-76
2022/08/25 01:09:18;;;;;;;2.95;2.30;;;22.00;55.70;;;;;;943135;148;27290;-76
2022/08/25 01:11:45;;;;;;;2.55;2.35;;;22.00;55.90;;;;;;943536;150;27390;-76
2022/08/25 01:14:12;;;;;;;3.87;2.50;;;22.00;56.10;;;;;;943114;150;27367;-76
2022/08/25 01:16:38;;;;;;;2.37;2.17;;;21.90;56.20;;;;;;945014;148;27333;-76
2022/08/25 01:19:05;;;;;;;2.58;2.37;;;21.90;56.20;;;;;;941679;150;27255;-76
2022/08/25 01:21:32;;;;;;;3.17;2.67;;;21.90;56.30;;;;;;942688;148;27355;-76
2022/08/25 01:23:58;;;;;;;2.55;2.35;;;21.80;56.40;;;;;;942142;148;27347;-76
2022/08/25 01:26:27;;;;;;;2.77;2.25;;;21.80;56.50;;;;;;943349;147;27262;-76
2022/08/25 01:31:38;;;;;;;2.60;2.20;;;21.70;56.70;;;;;;943158;150;27367;-76
2022/08/25 01:34:05;;;;;;;2.52;2.33;;;21.60;56.80;;;;;;942551;150;27275;-76
2022/08/25 01:36:31;;;;;;;2.70;2.50;;;21.60;56.90;;;;;;940801;150;27357;-76
2022/08/25 01:38:58;;;;;;;3.02;2.70;;;21.60;57.10;;;;;;943528;150;27342;-76
2022/08/25 01:41:33;;;;;;;3.25;2.90;;;21.50;57.10;;;;;;942351;148;27310;-77
2022/08/25 01:44:00;;;;;;;2.90;2.70;;;21.50;57.30;;;;;;943373;150;27284;-76
2022/08/25 01:46:26;;;;;;;3.05;2.80;;;21.50;57.30;;;;;;943144;148;27262;-76
2022/08/25 01:48:53;;;;;;;2.95;2.72;;;21.40;57.50;;;;;;941996;150;27192;-76
2022/08/25 01:51:20;;;;;;;2.75;2.55;;;21.40;57.00;;;;;;943403;150;27318;-76
2022/08/25 01:53:46;;;;;;;3.30;3.00;;;21.40;57.80;;;;;;941599;150;27670;-76
2022/08/25 01:56:13;;;;;;;2.50;2.30;;;21.30;58.20;;;;;;941617;150;27267;-76
2022/08/25 01:58:39;;;;;;;2.77;2.58;;;21.30;57.90;;;;;;942520;150;27269;-76
2022/08/25 02:01:06;;;;;;;2.80;2.60;;;21.30;58.70;;;;;;940690;148;27271;-76
2022/08/25 02:03:33;;;;;;;2.70;2.50;;;21.30;58.10;;;;;;943231;149;27235;-76
2022/08/25 02:06:00;;;;;;;2.70;2.50;;;21.20;58.10;;;;;;941703;149;27248;-76
2022/08/25 02:08:26;;;;;;;4.62;2.60;;;21.20;58.20;;;;;;943538;148;27393;-76
2022/08/25 02:10:52;;;;;;;2.70;2.50;;;21.20;58.40;;;;;;943608;150;28160;-76
2022/08/25 02:13:19;;;;;;;3.42;2.75;;;21.10;58.50;;;;;;941063;149;27283;-76
2022/08/25 02:15:46;;;;;;;3.00;2.80;;;21.10;58.50;;;;;;936914;148;27217;-76
2022/08/25 02:18:12;;;;;;;2.70;2.50;;;21.10;58.50;;;;;;935535;149;27850;-76
2022/08/25 02:20:39;;;;;;;4.37;3.00;;;21.00;58.60;;;;;;935923;149;27362;-76
2022/08/25 02:23:05;;;;;;;3.02;2.72;;;21.00;58.80;;;;;;935681;149;27288;-76
2022/08/25 02:25:32;;;;;;;3.67;2.95;;;21.00;58.90;;;;;;935487;147;27251;-76
2022/08/25 02:27:58;;;;;;;3.25;2.95;;;21.00;59.10;;;;;;935829;149;27256;-76
2022/08/25 02:30:25;;;;;;;3.50;3.20;;;20.90;59.30;;;;;;934677;149;27188;-76
2022/08/25 02:32:52;;;;;;;3.80;3.22;;;20.90;59.40;;;;;;937337;149;27318;-76
2022/08/25 02:35:18;;;;;;;3.20;2.90;;;20.90;59.40;;;;;;936683;149;27692;-76
2022/08/25 02:37:45;;;;;;;2.95;2.65;;;20.80;59.50;;;;;;937646;149;27295;-76
2022/08/25 02:40:11;;;;;;;3.30;2.58;;;20.80;59.70;;;;;;936847;149;27275;-76
2022/08/25 02:42:38;;;;;;;3.77;2.77;;;20.80;59.70;;;;;;936515;149;27245;-76
2022/08/25 02:45:06;;;;;;;3.72;3.35;;;20.70;59.70;;;;;;934555;149;27354;-76
2022/08/25 02:47:31;;;;;;;4.37;2.95;;;20.70;59.80;;;;;;935544;148;27375;-76
2022/08/25 02:49:58;;;;;;;3.10;2.83;;;20.70;59.80;;;;;;935642;149;27362;-76
2022/08/25 02:52:24;;;;;;;3.27;3.02;;;20.60;59.80;;;;;;936865;149;27268;-76
2022/08/25 02:54:51;;;;;;;3.47;3.17;;;20.60;60.00;;;;;;936935;149;27273;-76
2022/08/25 02:57:18;;;;;;;3.08;2.85;;;20.60;60.10;;;;;;936969;149;27367;-76
2022/08/25 02:59:47;;;;;;;3.30;3.00;;;20.50;60.20;;;;;;937263;149;27681;-76
2022/08/25 03:02:11;;;;;;;6.33;3.10;;;20.50;60.50;;;;;;935880;149;27292;-76
2022/08/25 03:04:37;;;;;;;3.70;3.10;;;20.50;60.50;;;;;;936409;149;27235;-76
2022/08/25 03:07:04;;;;;;;5.80;3.40;;;20.40;60.60;;;;;;934601;149;27241;-76
2022/08/25 03:09:31;;;;;;;3.72;3.33;;;20.40;60.70;;;;;;938048;149;27392;-76
2022/08/25 03:11:57;;;;;;;3.60;3.10;;;20.40;60.90;;;;;;934196;149;27283;-76
2022/08/25 03:14:24;;;;;;;3.67;2.92;;;20.30;61.00;;;;;;936043;149;27548;-76
2022/08/25 03:16:50;;;;;;;3.83;2.98;;;20.30;61.10;;;;;;936949;149;27475;-76
2022/08/25 03:19:17;;;;;;;3.15;2.95;;;20.30;61.30;;;;;;937289;149;27454;-76
2022/08/25 03:21:46;;;;;;;3.45;3.15;;;20.20;61.40;;;;;;938204;149;27387;-76
2022/08/25 03:24:10;;;;;;;3.50;3.20;;;20.20;61.60;;;;;;940397;149;27350;-76
2022/08/25 03:26:55;;;;;;;3.50;3.15;;;20.20;61.70;;;;;;938667;149;27369;-76
2022/08/25 03:29:24;;;;;;;4.33;3.10;;;20.10;61.70;;;;;;940063;149;27513;-76
2022/08/25 03:31:50;;;;;;;3.65;3.02;;;20.10;61.70;;;;;;938189;149;27467;-76
2022/08/25 03:34:17;;;;;;;3.70;3.40;;;20.10;61.90;;;;;;937848;149;27882;-76
2022/08/25 03:36:44;;;;;;;3.47;3.17;;;20.00;62.10;;;;;;939426;149;27327;-76
2022/08/25 03:39:10;;;;;;;3.58;3.27;;;20.00;62.30;;;;;;938103;149;27409;-76
2022/08/25 03:41:37;;;;;;;3.60;3.33;;;20.00;62.40;;;;;;937950;149;27407;-76
2022/08/25 03:44:03;;;;;;;3.67;3.37;;;20.00;62.40;;;;;;938789;149;27362;-75
2022/08/25 03:46:36;;;;;;;3.58;3.02;;;19.90;62.50;;;;;;941033;149;27407;-75
2022/08/25 03:49:02;;;;;;;3.58;3.27;;;19.90;62.50;;;;;;937747;149;27309;-76
2022/08/25 03:51:29;;;;;;;3.50;3.20;;;19.90;62.70;;;;;;939072;149;27358;-75
2022/08/25 03:53:56;;;;;;;4.00;3.70;;;19.80;62.80;;;;;;955250;144;27314;-75
2022/08/25 03:56:22;;;;;;;3.42;2.80;;;19.80;63.00;;;;;;957442;145;27357;-76
2022/08/25 03:58:49;;;;;;;4.72;3.33;;;19.70;63.10;;;;;;958806;144;27392;-75
2022/08/25 04:01:15;;;;;;;3.92;3.62;;;19.70;63.20;;;;;;956981;144;27369;-76
2022/08/25 04:03:42;;;;;;;4.05;3.50;;;19.70;63.50;;;;;;958393;144;27291;-76
2022/08/25 04:06:09;;;;;;;5.35;3.58;;;19.70;63.60;;;;;;956352;144;27329;-75
2022/08/25 04:08:35;;;;;;;3.90;3.52;;;19.60;63.60;;;;;;957634;144;27279;-75
2022/08/25 04:11:05;;;;;;;3.65;3.33;;;19.60;63.90;;;;;;959737;144;27279;-75
2022/08/25 04:13:31;;;;;;;4.53;3.67;;;19.60;64.00;;;;;;957129;144;27381;-76
2022/08/25 04:15:58;;;;;;;3.75;3.45;;;19.50;64.10;;;;;;951959;146;27335;-75
2022/08/25 04:18:25;;;;;;;3.65;3.35;;;19.50;64.20;;;;;;951271;145;27980;-76
2022/08/25 04:20:51;;;;;;;3.45;3.15;;;19.50;64.40;;;;;;950641;145;27293;-75
2022/08/25 04:23:18;;;;;;;4.85;4.45;;;19.50;64.40;;;;;;950848;145;27308;-75
2022/08/25 04:25:44;;;;;;;4.17;3.77;;;19.40;65.20;;;;;;951775;145;27294;-75
2022/08/25 04:28:11;;;;;;;4.20;3.80;;;19.40;64.60;;;;;;951077;146;27288;-76
2022/08/25 04:30:38;;;;;;;3.98;3.65;;;19.40;64.90;;;;;;952384;145;27422;-75
2022/08/25 04:33:04;;;;;;;4.78;4.30;;;19.40;65.00;;;;;;949683;145;27714;-75
2022/08/25 04:35:31;;;;;;;4.22;3.85;;;19.30;65.00;;;;;;951707;145;27297;-76
2022/08/25 04:37:58;;;;;;;4.15;3.75;;;19.30;65.20;;;;;;948010;146;27311;-76
2022/08/25 04:40:25;;;;;;;3.77;3.47;;;19.30;65.20;;;;;;949405;145;27348;-75
2022/08/25 04:42:50;;;;;;;4.33;3.70;;;19.30;65.30;;;;;;951288;145;27376;-76
2022/08/25 04:45:17;;;;;;;3.70;3.42;;;19.30;65.50;;;;;;950526;145;27429;-76
2022/08/25 04:47:44;;;;;;;3.75;3.47;;;19.30;65.80;;;;;;949344;146;27299;-76
2022/08/25 04:50:10;;;;;;;3.95;3.62;;;19.30;66.00;;;;;;952028;145;27297;-75
2022/08/25 04:52:37;;;;;;;6.97;4.53;;;19.30;66.00;;;;;;954370;145;27327;-76
2022/08/25 04:55:03;;;;;;;4.47;4.08;;;19.30;66.10;;;;;;951760;145;27284;-75
2022/08/25 04:57:30;;;;;;;4.20;3.90;;;19.30;66.30;;;;;;950624;145;27323;-75
2022/08/25 04:59:57;;;;;;;4.45;4.08;;;19.40;66.60;;;;;;950607;146;27307;-75
2022/08/25 05:02:24;;;;;;;4.28;3.95;;;19.40;67.10;;;;;;951033;145;27398;-75
2022/08/25 05:04:50;;;;;;;4.40;4.10;;;19.60;67.70;;;;;;949239;145;27305;-75
2022/08/25 05:07:16;;;;;;;3.75;3.45;;;19.70;68.20;;;;;;949081;145;27280;-75
2022/08/25 05:09:43;;;;;;;3.87;3.58;;;20.00;68.60;;;;;;952110;145;27295;-75
2022/08/25 05:12:10;;;;;;;4.22;3.92;;;20.30;68.60;;;;;;949111;145;27344;-76
2022/08/25 05:14:36;;;;;;;4.42;4.03;;;20.70;68.50;;;;;;951900;145;27309;-75
2022/08/25 05:17:03;;;;;;;8.00;4.28;;;21.10;68.30;;;;;;948632;146;27949;-76
2022/08/25 05:19:29;;;;;;;4.78;3.70;;;21.50;68.10;;;;;;950536;145;27329;-76
2022/08/25 05:21:56;;;;;;;3.70;3.40;;;22.00;67.60;;;;;;950880;146;27873;-76
2022/08/25 05:24:23;;;;;;;3.77;3.45;;;22.50;67.20;;;;;;949814;145;27415;-76
2022/08/25 05:26:49;;;;;;;3.52;3.25;;;23.10;66.60;;;;;;949754;145;27377;-76
2022/08/25 05:29:16;;;;;;;5.58;3.62;;;23.60;66.00;;;;;;950855;145;27197;-76
2022/08/25 05:31:44;;;;;;;3.35;3.05;;;24.30;65.10;;;;;;952462;146;27377;-76
2022/08/25 05:34:09;;;;;;;4.17;3.15;;;24.80;64.10;;;;;;951847;145;27393;-76
2022/08/25 05:36:37;;;;;;;5.55;3.62;;;25.40;63.20;;;;;;950957;146;27299;-76
2022/08/25 05:39:03;;;;;;;3.77;3.47;;;26.00;62.30;;;;;;950157;145;27337;-76
2022/08/25 05:41:29;;;;;;;4.53;3.30;;;26.70;61.30;;;;;;949687;145;27331;-76
2022/08/25 05:43:55;;;;;;;3.45;3.20;;;27.30;60.10;;;;;;949292;145;27305;-76
2022/08/25 05:46:22;;;;;;;3.83;3.52;;;27.90;59.20;;;;;;951145;145;27315;-76
2022/08/25 05:48:49;;;;;;;3.60;3.30;;;28.50;58.20;;;;;;948173;145;27376;-76
2022/08/25 05:51:15;;;;;;;6.30;4.37;;;29.00;57.40;;;;;;950232;145;27679;-76
2022/08/25 05:53:42;;;;;;;8.08;4.50;;;29.50;56.60;;;;;;951898;145;27277;-76
2022/08/25 05:56:08;;;;;;;7.83;6.83;;;30.00;56.10;;;;;;952113;145;27288;-76
2022/08/25 05:58:35;;;;;;;6.05;5.37;;;30.40;55.30;;;;;;953163;145;28085;-76
2022/08/25 06:02:39;;;;;;;4.55;4.17;;;30.90;54.70;;;;;;950427;145;27434;-76
2022/08/25 06:03:28;;;;;;;6.42;4.60;;;31.40;54.00;;;;;;950033;145;27892;-76
2022/08/25 06:05:55;;;;;;;4.30;3.90;;;31.80;53.30;;;;;;948736;145;27299;-76
2022/08/25 06:08:22;;;;;;;4.47;4.08;;;32.20;52.50;;;;;;949392;145;27686;-76
2022/08/25 06:10:48;;;;;;;3.62;3.30;;;32.60;51.80;;;;;;950619;146;27276;-77
2022/08/25 06:13:15;;;;;;;4.03;3.70;;;33.00;51.40;;;;;;949504;145;27485;-77
2022/08/25 06:15:41;;;;;;;4.55;4.00;;;33.40;51.00;;;;;;951167;145;27379;-77
2022/08/25 06:18:07;;;;;;;4.30;4.00;;;33.80;50.60;;;;;;952121;145;28269;-77
2022/08/25 06:20:34;;;;;;;4.50;4.15;;;34.30;50.20;;;;;;952557;145;27295;-77
2022/08/25 06:23:01;;;;;;;4.00;3.70;;;34.80;49.80;;;;;;950737;145;26201;-77
2022/08/25 06:25:31;;;;;;;4.28;3.90;;;35.30;49.10;;;;;;952582;145;27294;-77
2022/08/25 06:27:54;;;;;;;4.22;3.83;;;35.80;48.70;;;;;;952004;145;26213;-77
2022/08/25 06:30:20;;;;;;;4.50;4.10;;;36.40;48.10;;;;;;951080;145;26240;-77
2022/08/25 06:32:48;;;;;;;4.92;4.00;;;36.90;47.40;;;;;;950848;145;26217;-77
2022/08/25 06:35:14;;;;;;;4.12;3.70;;;37.50;46.60;;;;;;950647;145;26177;-77
2022/08/25 06:37:41;;;;;;;4.00;3.67;;;38.10;46.00;;;;;;951911;145;26278;-77
2022/08/25 06:40:07;;;;;;;7.12;4.10;;;38.50;45.20;;;;;;951478;145;26222;-77
2022/08/25 06:42:33;;;;;;;3.95;3.65;;;39.10;44.70;;;;;;951003;145;26245;-77
2022/08/25 06:45:00;;;;;;;3.47;3.27;;;39.60;44.00;;;;;;950912;145;26619;-77
2022/08/25 06:47:27;;;;;;;4.30;3.90;;;40.10;43.10;;;;;;951866;145;26327;-77
2022/08/25 06:49:53;;;;;;;4.30;3.90;;;40.60;42.40;;;;;;951586;145;26198;-77
2022/08/25 06:52:20;;;;;;;3.92;3.62;;;41.00;41.70;;;;;;950753;145;26151;-77
2022/08/25 06:54:46;;;;;;;4.90;3.72;;;41.50;41.00;;;;;;952888;146;26205;-77
2022/08/25 06:57:13;;;;;;;3.83;3.52;;;41.90;40.40;;;;;;952437;145;26314;-77
2022/08/25 06:59:39;;;;;;;3.58;3.27;;;42.30;39.80;;;;;;950433;145;26266;-77
2022/08/25 07:02:06;;;;;;;4.22;3.83;;;42.70;39.30;;;;;;952055;145;26189;-78
2022/08/25 07:04:33;;;;;;;4.67;3.52;;;43.10;38.90;;;;;;949940;145;26266;-78
2022/08/25 07:06:59;;;;;;;4.08;3.77;;;43.40;38.20;;;;;;950539;145;27907;-78
2022/08/25 07:09:26;;;;;;;5.35;3.90;;;43.80;37.80;;;;;;950093;145;26785;-78
2022/08/25 07:11:53;;;;;;;3.67;3.37;;;44.10;37.10;;;;;;951282;145;26310;-78
2022/08/25 07:14:19;;;;;;;4.83;3.15;;;44.50;36.60;;;;;;954358;145;26201;-78
2022/08/25 07:16:46;;;;;;;3.75;3.45;;;44.80;36.10;;;;;;956061;144;26294;-78
2022/08/25 07:19:12;;;;;;;4.33;3.95;;;45.00;35.50;;;;;;970983;144;26304;-78
2022/08/25 07:21:39;;;;;;;4.08;3.75;;;45.40;35.00;;;;;;969616;144;26247;-78
2022/08/25 07:24:05;;;;;;;4.42;3.87;;;45.70;34.60;;;;;;969788;144;26234;-78
2022/08/25 07:26:35;;;;;;;4.20;3.85;;;45.90;34.20;;;;;;968252;144;26181;-78
2022/08/25 07:28:59;;;;;;;3.55;3.35;;;46.10;33.60;;;;;;968297;144;26292;-78
2022/08/25 07:31:25;;;;;;;3.83;3.52;;;46.30;33.30;;;;;;971701;144;26192;-78
2022/08/25 07:36:36;;;;;;;3.70;3.40;;;46.70;32.70;;;;;;971696;144;26416;-78
2022/08/25 07:39:05;;;;;;;4.65;3.62;;;46.80;32.30;;;;;;968104;144;26239;-78
2022/08/25 07:41:30;;;;;;;4.33;3.85;;;47.00;32.50;;;;;;972306;144;26257;-78
2022/08/25 07:43:56;;;;;;;4.12;3.80;;;47.10;31.60;;;;;;971020;144;26188;-78
2022/08/25 07:46:23;;;;;;;4.03;3.70;;;47.20;31.40;;;;;;970282;144;26293;-78
2022/08/25 07:48:49;;;;;;;3.83;3.52;;;47.30;31.10;;;;;;967837;144;26312;-78
2022/08/25 07:51:16;;;;;;;4.37;4.00;;;47.40;31.00;;;;;;970350;144;26344;-78
2022/08/25 07:53:43;;;;;;;4.80;3.83;;;47.40;30.70;;;;;;969140;144;27607;-78
2022/08/25 07:56:09;;;;;;;4.58;4.17;;;47.50;30.50;;;;;;969159;144;26255;-78
2022/08/25 07:58:36;;;;;;;4.83;3.95;;;47.50;30.30;;;;;;971979;143;26215;-78
2022/08/25 08:01:02;;;;;;;4.20;3.80;;;47.50;30.00;;;;;;970570;144;26321;-79
2022/08/25 08:03:29;;;;;;;4.03;3.70;;;47.40;30.00;;;;;;972077;144;26327;-78
2022/08/25 08:05:56;;;;;;;5.90;4.05;;;47.40;30.00;;;;;;969184;144;26284;-79
2022/08/25 08:08:22;;;;;;;4.10;3.67;;;47.40;29.90;;;;;;971741;144;26179;-79
2022/08/25 08:10:49;;;;;;;3.60;3.22;;;47.50;29.80;;;;;;970334;144;26308;-79
2022/08/25 08:13:16;;;;;;;4.20;3.80;;;47.60;29.70;;;;;;972291;144;26171;-80
2022/08/25 08:15:42;;;;;;;4.10;3.80;;;47.60;29.60;;;;;;971018;144;26308;-79
2022/08/25 08:18:09;;;;;;;3.62;3.42;;;47.70;29.50;;;;;;969644;144;26379;-79
2022/08/25 08:20:35;;;;;;;3.65;3.33;;;47.70;29.40;;;;;;971146;144;26300;-79
2022/08/25 08:23:02;;;;;;;3.60;3.30;;;47.70;29.30;;;;;;969182;144;26227;-79
2022/08/25 08:25:29;;;;;;;3.05;2.87;;;47.80;29.30;;;;;;970936;144;26294;-79
2022/08/25 08:27:55;;;;;;;3.60;3.30;;;48.00;29.20;;;;;;971071;144;26263;-79
2022/08/25 08:30:21;;;;;;;3.33;3.12;;;48.10;29.10;;;;;;970364;144;26243;-79
2022/08/25 08:32:48;;;;;;;3.65;3.45;;;48.20;28.90;;;;;;971576;144;26205;-79
2022/08/25 08:35:17;;;;;;;3.70;3.40;;;48.30;28.70;;;;;;969037;144;26258;-80
2022/08/25 08:37:41;;;;;;;3.85;3.60;;;48.30;28.60;;;;;;972592;144;26207;-79
2022/08/25 08:40:08;;;;;;;6.65;3.30;;;48.40;28.60;;;;;;969852;144;26277;-80
2022/08/25 08:42:47;;;;;;;3.62;3.33;;;48.40;28.40;;;;;;973747;144;26368;-79
2022/08/25 08:45:20;;;;;;;4.12;3.25;;;48.40;28.10;;;;;;969219;144;26246;-80
2022/08/25 08:47:55;;;;;;;3.30;3.00;;;48.20;28.10;;;;;;972322;144;26191;-79
2022/08/25 08:50:39;;;;;;;3.12;2.83;;;48.10;28.20;;;;;;969185;144;26203;-80
2022/08/25 08:53:08;;;;;;;3.20;2.90;;;48.10;28.10;;;;;;970050;144;26246;-79
2022/08/25 08:55:35;;;;;;;3.27;2.98;;;48.00;28.00;;;;;;970803;144;26833;-79
2022/08/25 08:58:01;;;;;;;3.35;3.02;;;48.00;27.80;;;;;;970367;144;26200;-79
2022/08/25 09:00:28;;;;;;;3.20;3.00;;;47.90;27.90;;;;;;968144;144;26195;-79
2022/08/25 09:03:06;;;;;;;3.40;3.10;;;47.70;27.70;;;;;;971297;144;26192;-80
2022/08/25 09:05:39;;;;;;;3.35;3.05;;;47.70;27.70;;;;;;962035;144;26344;-79
2022/08/25 09:08:05;;;;;;;4.92;3.40;;;47.50;27.50;;;;;;966873;144;26291;-79
2022/08/25 09:10:38;;;;;;;2.85;2.65;;;47.30;27.60;;;;;;968120;144;26235;-80
2022/08/25 09:13:19;;;;;;;3.62;3.00;;;47.20;28.00;;;;;;969593;144;26325;-79
2022/08/25 09:18:51;;;;;;;3.75;3.22;;;46.90;27.40;;;;;;938088;150;26320;-79
2022/08/25 09:21:30;;;;;;;3.33;3.02;;;46.70;27.60;;;;;;946103;149;26226;-79
2022/08/25 09:24:08;;;;;;;3.10;2.90;;;46.40;27.50;;;;;;931269;150;26258;-80
2022/08/25 09:26:37;;;;;;;3.60;3.30;;;46.00;27.50;;;;;;931981;150;26371;-80
2022/08/25 09:29:04;;;;;;;2.90;2.65;;;45.80;27.70;;;;;;946449;147;26371;-79
2022/08/25 09:31:34;;;;;;;3.40;3.10;;;45.50;27.80;;;;;;937513;150;26249;-79
2022/08/25 09:34:00;;;;;;;3.40;3.10;;;45.20;27.90;;;;;;945188;147;26321;-79
2022/08/25 09:36:27;;;;;;;2.90;2.70;;;45.00;28.10;;;;;;947330;147;27993;-80
2022/08/25 09:38:54;;;;;;;3.15;2.92;;;44.80;28.20;;;;;;947156;147;26367;-80
2022/08/25 09:41:39;;;;;;;4.00;3.45;;;44.60;28.40;;;;;;947218;147;27947;-80
2022/08/25 09:44:06;;;;;;;3.30;3.10;;;44.50;28.50;;;;;;948083;147;26273;-80
2022/08/25 09:46:33;;;;;;;4.05;3.58;;;44.50;28.60;;;;;;945544;147;26380;-79
2022/08/25 09:49:11;;;;;;;3.20;3.00;;;44.40;28.50;;;;;;947298;147;26304;-79
2022/08/25 09:51:40;;;;;;;3.30;3.00;;;44.20;28.40;;;;;;945443;147;26288;-79
2022/08/25 09:54:16;;;;;;;2.90;2.70;;;44.00;28.30;;;;;;945170;147;26267;-80
2022/08/25 09:56:51;;;;;;;3.47;3.27;;;43.70;28.40;;;;;;948691;147;26393;-78
2022/08/25 09:59:32;;;;;;;3.15;2.95;;;43.30;28.50;;;;;;946255;147;26283;-79
2022/08/25 10:01:56;;;;;;;3.20;3.00;;;42.90;28.50;;;;;;946713;147;26319;-80
2022/08/25 10:04:32;;;;;;;3.47;3.25;;;42.40;28.90;;;;;;943426;147;26268;-78
2022/08/25 10:06:59;;;;;;;3.83;3.52;;;41.90;29.20;;;;;;946566;147;26320;-78
2022/08/25 10:09:28;;;;;;;3.25;2.95;;;41.50;29.30;;;;;;946010;147;26308;-78
2022/08/25 10:11:54;;;;;;;3.12;2.92;;;41.20;29.50;;;;;;943524;147;26386;-78
2022/08/25 10:14:24;;;;;;;3.75;3.45;;;40.80;29.70;;;;;;945532;147;26237;-78
2022/08/25 10:16:53;;;;;;;4.00;3.70;;;40.40;29.80;;;;;;947174;147;26227;-78
2022/08/25 10:19:23;;;;;;;3.10;2.90;;;40.10;30.00;;;;;;943482;147;26172;-78
2022/08/25 10:22:02;;;;;;;3.50;3.20;;;39.70;30.20;;;;;;935461;149;26308;-78
2022/08/25 10:24:29;;;;;;;3.75;3.30;;;39.40;30.60;;;;;;931653;149;27954;-78
2022/08/25 10:26:55;;;;;;;3.95;3.65;;;39.10;30.80;;;;;;933751;149;26193;-78
2022/08/25 10:29:28;;;;;;;3.30;3.10;;;38.80;31.00;;;;;;935515;149;27210;-78
2022/08/25 10:32:07;;;;;;;3.60;2.90;;;38.60;31.20;;;;;;935927;149;27264;-78
2022/08/25 10:34:48;;;;;;;3.80;3.50;;;38.30;31.50;;;;;;935491;148;27252;-78
2022/08/25 10:37:21;;;;;;;3.20;3.00;;;38.00;31.50;;;;;;936922;149;27297;-78
2022/08/25 10:40:11;;;;;;;3.33;3.05;;;37.60;31.80;;;;;;919687;149;27351;-78
2022/08/25 10:43:05;;;;;;;3.55;3.25;;;37.30;32.00;;;;;;936368;149;27250;-78
2022/08/25 10:45:44;;;;;;;3.42;3.22;;;37.10;32.30;;;;;;937017;149;27378;-78
2022/08/25 10:48:38;;;;;;;4.20;3.30;;;36.90;32.60;;;;;;937244;149;27276;-78
2022/08/25 10:51:33;;;;;;;3.50;3.20;;;36.70;32.90;;;;;;933695;148;27274;-78
2022/08/25 10:54:23;;;;;;;3.65;3.35;;;36.50;33.30;;;;;;937513;149;27229;-78
2022/08/25 10:57:01;;;;;;;2.85;2.65;;;36.30;33.50;;;;;;937145;149;27268;-78
2022/08/25 10:59:49;;;;;;;4.90;3.58;;;36.10;33.60;;;;;;936727;149;27289;-79
2022/08/25 11:02:38;;;;;;;5.15;3.27;;;36.00;33.70;;;;;;937036;149;27296;-79
2022/08/25 11:05:26;;;;;;;3.40;2.98;;;35.90;33.90;;;;;;933404;149;27283;-79
2022/08/25 11:07:55;;;;;;;3.98;3.20;;;35.90;34.20;;;;;;937619;149;27213;-79
2022/08/25 11:10:25;;;;;;;2.92;2.72;;;35.90;34.40;;;;;;935344;149;27340;-79
2022/08/25 11:12:51;;;;;;;3.62;3.33;;;35.80;34.60;;;;;;937226;149;27257;-79
2022/08/25 11:15:36;;;;;;;3.40;3.10;;;35.70;34.60;;;;;;937327;149;27225;-79
2022/08/25 11:18:08;;;;;;;3.37;3.08;;;35.70;34.90;;;;;;934527;149;27293;-78
2022/08/25 11:20:40;;;;;;;3.47;3.27;;;35.60;34.90;;;;;;937102;149;27413;-78
2022/08/25 11:23:10;;;;;;;2.83;2.62;;;35.60;34.60;;;;;;922310;151;27266;-78
2022/08/25 11:25:42;;;;;;;3.50;3.20;;;35.50;34.40;;;;;;934852;147;27366;-78
2022/08/25 11:28:36;;;;;;;3.12;2.83;;;35.40;34.40;;;;;;936752;149;27308;-78
2022/08/25 11:31:02;;;;;;;2.65;2.45;;;35.30;34.50;;;;;;934983;149;27396;-79
2022/08/25 11:33:29;;;;;;;2.87;2.67;;;35.20;34.50;;;;;;934469;149;27419;-78
2022/08/25 11:35:58;;;;;;;3.37;3.08;;;35.10;34.80;;;;;;934786;149;27233;-79
2022/08/25 11:38:31;;;;;;;3.95;3.35;;;35.00;35.00;;;;;;926470;148;27249;-78
2022/08/25 11:41:16;;;;;;;3.55;3.25;;;34.90;35.10;;;;;;935675;149;27348;-79
2022/08/25 11:43:51;;;;;;;3.02;2.83;;;34.90;35.30;;;;;;936095;149;27328;-79
2022/08/25 11:46:27;;;;;;;2.98;2.77;;;34.80;35.30;;;;;;934019;149;27232;-79
2022/08/25 11:49:11;;;;;;;3.70;3.40;;;34.70;35.50;;;;;;936403;149;27350;-79
2022/08/25 11:51:40;;;;;;;3.67;3.10;;;34.70;35.70;;;;;;935893;149;27695;-79
2022/08/25 11:54:19;;;;;;;3.90;3.60;;;34.60;35.70;;;;;;935908;149;27233;-78
2022/08/25 11:56:54;;;;;;;3.15;2.85;;;34.50;35.70;;;;;;935587;148;27330;-78
2022/08/25 11:59:51;;;;;;;3.25;3.05;;;34.60;35.90;;;;;;934863;148;27256;-78
2022/08/25 12:02:26;;;;;;;3.17;2.95;;;34.50;36.00;;;;;;924055;151;27306;-79
2022/08/25 12:04:54;;;;;;;3.15;2.92;;;34.60;36.00;;;;;;926217;149;27358;-79
2022/08/25 12:07:19;;;;;;;3.47;3.17;;;34.60;36.00;;;;;;934440;149;27202;-79
2022/08/25 12:09:54;;;;;;;2.98;2.77;;;34.70;36.10;;;;;;935055;149;27226;-79
2022/08/25 12:12:27;;;;;;;3.10;2.90;;;34.80;35.90;;;;;;933589;149;27389;-78
2022/08/25 12:14:54;;;;;;;3.20;2.92;;;34.80;35.70;;;;;;935700;149;27837;-78
2022/08/25 12:17:20;;;;;;;3.20;2.90;;;34.80;35.60;;;;;;936401;149;27193;-79
2022/08/25 12:19:48;;;;;;;3.20;3.00;;;34.80;35.50;;;;;;933374;149;27308;-79
2022/08/25 12:22:14;;;;;;;3.25;3.05;;;34.70;35.60;;;;;;936695;148;27268;-79
2022/08/25 12:24:43;;;;;;;3.00;2.80;;;34.70;35.60;;;;;;937003;149;27250;-79
2022/08/25 12:27:43;;;;;;;3.40;3.20;;;34.70;35.60;;;;;;935980;149;27273;-79
2022/08/25 12:30:18;;;;;;;2.80;2.60;;;34.80;35.80;;;;;;934394;149;27272;-79
2022/08/25 12:33:03;;;;;;;3.50;2.92;;;34.90;35.90;;;;;;936188;149;27303;-79
2022/08/25 12:35:42;;;;;;;3.17;2.95;;;34.90;36.10;;;;;;937086;149;27344;-79
2022/08/25 12:38:15;;;;;;;3.42;3.12;;;34.90;35.90;;;;;;935920;148;27297;-79
2022/08/25 12:40:46;;;;;;;4.10;2.60;;;35.10;36.00;;;;;;937453;149;27345;-79
2022/08/25 12:43:19;;;;;;;3.05;2.85;;;35.10;35.80;;;;;;935367;148;27307;-79
2022/08/25 12:45:45;;;;;;;4.85;2.77;;;35.30;35.80;;;;;;936247;149;27369;-79
2022/08/25 12:48:27;;;;;;;3.02;2.72;;;35.40;35.70;;;;;;936489;148;27260;-79
2022/08/25 12:51:00;;;;;;;3.00;2.80;;;35.50;35.50;;;;;;934643;149;27272;-79
2022/08/25 12:53:41;;;;;;;3.05;2.85;;;35.50;35.30;;;;;;936715;149;27295;-79
2022/08/25 12:56:08;;;;;;;3.37;3.08;;;35.50;35.10;;;;;;934115;148;27327;-79
2022/08/25 12:58:46;;;;;;;4.03;3.08;;;35.40;35.10;;;;;;932804;149;27246;-79
2022/08/25 13:01:13;;;;;;;3.40;3.17;;;35.20;35.00;;;;;;931526;149;27256;-79
2022/08/25 13:03:48;;;;;;;3.60;3.30;;;35.10;35.10;;;;;;934819;149;27357;-79
2022/08/25 13:06:15;;;;;;;2.90;2.70;;;35.00;35.30;;;;;;934585;149;28727;-79